Terminal Aerodrome Forecast
Issued by NWS

Home | Current Version | Previous Version | Text Only | Print | Product List | Glossary On
Versions: 1 2 3 4 5 6 7 8 9 10 11 12 13 14 15 16 17 18 19 20 21 22 23 24 25 26 27 28 29 30 31 32 33 34 35
000
FTUS44 KFWD 272340
TAFGKY
TAF
KGKY 272340Z 2800/2824 03010KT P6SM VCTS SCT015 OVC025CB
      TEMPO 2800/2801 3SM -TSRA BKN025CB
     FM280300 01013G23KT P6SM OVC012
     FM281200 01013G23KT P6SM OVC009
     FM282100 01015G25KT P6SM OVC012=

USA.gov is the U.S. government's official web portal to all federal, state and local government web resources and services.